Time;durP1;ratioP1;P1;durP2;ratioP2;P2;SDS_P1;SDS_P2;PMS_P1;PMS_P2;Temp;Humidity;BMP_temperature;BMP_pressure;BME280_temperature;BME280_humidity;BME280_pressure;Samples;Min_cycle;Max_cycle;Signal;HPM_P1;HPM_P2
2021/04/30 00:00:36;;;;;;;18.60;11.23;;;8.40;95.50;;;;;;4934102;29;20503;-66
2021/04/30 00:03:01;;;;;;;19.48;10.20;;;8.40;95.50;;;;;;4934056;29;20035;-66
2021/04/30 00:05:29;;;;;;;23.02;11.85;;;8.40;95.60;;;;;;4933371;29;20028;-66
2021/04/30 00:07:58;;;;;;;31.65;17.45;;;8.40;95.60;;;;;;4933603;29;20027;-66
2021/04/30 00:10:25;;;;;;;21.52;12.60;;;8.30;95.70;;;;;;4932816;29;20024;-65
2021/04/30 00:12:50;;;;;;;25.40;11.77;;;8.30;95.70;;;;;;4933006;29;20207;-66
2021/04/30 00:15:16;;;;;;;20.65;11.27;;;8.30;95.70;;;;;;4934151;29;20091;-66
2021/04/30 00:17:42;;;;;;;29.70;11.93;;;8.20;96.10;;;;;;4934006;29;20440;-66
2021/04/30 00:20:08;;;;;;;20.50;12.15;;;8.30;95.90;;;;;;4932971;29;20028;-66
2021/04/30 00:22:34;;;;;;;23.20;12.02;;;8.20;95.90;;;;;;4933709;29;20032;-66
2021/04/30 00:25:00;;;;;;;21.70;10.65;;;8.30;96.00;;;;;;4932888;29;20083;-67
2021/04/30 00:27:25;;;;;;;31.63;12.90;;;8.30;96.00;;;;;;4933548;29;20032;-66
2021/04/30 00:29:51;;;;;;;21.20;11.32;;;8.30;96.00;;;;;;4933623;29;20028;-66
2021/04/30 00:32:16;;;;;;;23.10;13.95;;;8.40;95.90;;;;;;4932905;29;20047;-66
2021/04/30 00:34:42;;;;;;;24.67;11.88;;;8.40;95.90;;;;;;4933564;29;20062;-65
2021/04/30 00:37:08;;;;;;;27.80;11.40;;;8.40;96.00;;;;;;4933418;29;20106;-64
2021/04/30 00:39:35;;;;;;;20.67;11.23;;;8.50;96.00;;;;;;4932981;29;20019;-66
2021/04/30 00:42:01;;;;;;;17.98;10.25;;;8.50;95.90;;;;;;4932291;29;20027;-66
2021/04/30 00:44:27;;;;;;;22.63;11.50;;;8.50;95.90;;;;;;4933567;29;20038;-66
2021/04/30 00:46:52;;;;;;;23.52;11.88;;;8.40;95.90;;;;;;4932635;29;20428;-66
2021/04/30 00:49:18;;;;;;;20.27;10.43;;;8.40;95.90;;;;;;4933441;29;20028;-66
2021/04/30 00:51:43;;;;;;;20.30;11.27;;;8.50;96.00;;;;;;4933168;29;20031;-65
2021/04/30 00:54:09;;;;;;;21.42;12.07;;;8.50;96.20;;;;;;4932768;29;20035;-66
2021/04/30 00:56:35;;;;;;;22.80;11.20;;;8.50;95.90;;;;;;4933175;29;20023;-67
2021/04/30 00:59:01;;;;;;;19.77;11.18;;;8.60;96.20;;;;;;4931822;29;20127;-67
2021/04/30 01:01:27;;;;;;;24.75;12.23;;;8.60;95.90;;;;;;4931117;29;20058;-67
2021/04/30 01:03:54;;;;;;;24.30;12.45;;;8.60;95.80;;;;;;4932934;29;20023;-66
2021/04/30 01:06:20;;;;;;;21.98;11.73;;;8.70;95.90;;;;;;4933386;29;20028;-67
2021/04/30 01:08:45;;;;;;;19.52;10.90;;;8.70;95.90;;;;;;4931929;29;20472;-65
2021/04/30 01:11:11;;;;;;;24.80;12.38;;;8.70;95.80;;;;;;4933039;29;20032;-64
2021/04/30 01:13:37;;;;;;;29.90;12.15;;;8.80;95.80;;;;;;4933108;29;20039;-65
2021/04/30 01:16:03;;;;;;;24.05;11.32;;;8.80;95.80;;;;;;4932354;29;20577;-65
2021/04/30 01:18:39;;;;;;;25.65;11.88;;;8.80;95.80;;;;;;4932875;29;20031;-65
2021/04/30 01:21:04;;;;;;;27.35;11.95;;;8.80;95.80;;;;;;4931613;29;20503;-63
2021/04/30 01:23:30;;;;;;;25.00;11.15;;;8.80;95.70;;;;;;4932085;29;20028;-66
2021/04/30 01:25:55;;;;;;;18.35;11.77;;;8.80;95.70;;;;;;4932637;29;20026;-66
2021/04/30 01:28:21;;;;;;;24.50;12.23;;;8.80;95.80;;;;;;4932430;29;20020;-65
2021/04/30 01:30:46;;;;;;;26.38;12.07;;;8.80;95.70;;;;;;4932424;29;20024;-65
2021/04/30 01:33:20;;;;;;;21.00;11.40;;;8.90;95.70;;;;;;4932934;29;20127;-66
2021/04/30 01:35:46;;;;;;;32.88;12.85;;;8.90;95.70;;;;;;4931999;29;20039;-66
2021/04/30 01:38:12;;;;;;;22.77;11.77;;;8.80;95.70;;;;;;4931626;29;20039;-65
2021/04/30 01:40:38;;;;;;;31.00;13.65;;;8.80;95.70;;;;;;4931624;29;20026;-66
2021/04/30 01:43:10;;;;;;;24.33;11.32;;;8.80;95.70;;;;;;4932145;29;20114;-67
2021/04/30 01:45:37;;;;;;;28.15;12.10;;;8.80;95.70;;;;;;4932727;29;20476;-66
2021/04/30 01:48:05;;;;;;;22.58;13.07;;;8.80;95.80;;;;;;4932625;29;20532;-66
2021/04/30 01:50:31;;;;;;;38.25;14.15;;;8.70;95.80;;;;;;4931805;29;20035;-66
2021/04/30 01:52:56;;;;;;;27.00;12.95;;;8.70;95.80;;;;;;4932377;29;20051;-66
2021/04/30 01:55:26;;;;;;;22.67;12.82;;;8.70;95.80;;;;;;4932795;29;20020;-66
2021/04/30 01:57:51;;;;;;;35.05;14.93;;;8.70;95.90;;;;;;4931794;29;20032;-65
2021/04/30 02:00:21;;;;;;;26.08;12.75;;;8.70;95.90;;;;;;4932421;29;20047;-66
2021/04/30 02:02:49;;;;;;;22.20;12.77;;;8.70;95.90;;;;;;4932301;29;20162;-65
2021/04/30 02:05:14;;;;;;;29.23;13.52;;;8.70;95.90;;;;;;4932050;29;20071;-66
2021/04/30 02:07:41;;;;;;;24.65;11.75;;;8.70;95.90;;;;;;4932423;29;20428;-64
2021/04/30 02:10:13;;;;;;;27.33;14.02;;;8.70;95.90;;;;;;4931418;29;20443;-65
2021/04/30 02:12:38;;;;;;;;;;;8.70;96.00;;;;;;4932269;29;20126;-65
2021/04/30 02:15:05;;;;;;;31.08;13.13;;;8.70;96.00;;;;;;4932178;29;19993;-65
2021/04/30 02:17:31;;;;;;;24.65;13.43;;;8.70;95.90;;;;;;4931813;29;20019;-65
2021/04/30 02:19:56;;;;;;;29.05;13.82;;;8.80;96.00;;;;;;4932169;29;20055;-65
2021/04/30 02:22:22;;;;;;;24.75;13.55;;;8.90;96.00;;;;;;4930999;29;20058;-65
2021/04/30 02:24:48;;;;;;;25.45;13.60;;;8.90;96.00;;;;;;4930436;29;20090;-65
2021/04/30 02:27:14;;;;;;;22.85;13.55;;;8.90;96.00;;;;;;4932920;29;20094;-65
2021/04/30 02:29:40;;;;;;;20.60;12.65;;;8.90;95.90;;;;;;4930997;29;20059;-65
2021/04/30 02:32:05;;;;;;;34.83;15.38;;;8.90;95.90;;;;;;4931556;29;20091;-66
2021/04/30 02:34:31;;;;;;;28.60;13.77;;;8.90;96.20;;;;;;4932286;29;20083;-65
2021/04/30 02:36:56;;;;;;;31.33;14.27;;;9.00;96.00;;;;;;4932662;29;20051;-66
2021/04/30 02:39:24;;;;;;;31.60;14.05;;;9.00;95.90;;;;;;4934805;29;20047;-65
2021/04/30 02:41:50;;;;;;;24.83;13.57;;;8.90;95.90;;;;;;4938119;29;20051;-66
2021/04/30 02:44:15;;;;;;;33.78;14.90;;;9.00;95.90;;;;;;4939161;29;20031;-66
2021/04/30 02:46:41;;;;;;;27.48;14.13;;;9.00;95.80;;;;;;4936890;29;20035;-66
2021/04/30 02:49:09;;;;;;;36.33;13.63;;;9.00;95.80;;;;;;4933055;29;20035;-65
2021/04/30 02:51:34;;;;;;;31.67;13.48;;;9.00;95.80;;;;;;4936413;29;20114;-65
2021/04/30 02:54:00;;;;;;;22.38;15.13;;;9.00;95.80;;;;;;4937267;29;20119;-66
2021/04/30 02:56:25;;;;;;;24.20;13.43;;;9.00;96.10;;;;;;4938038;29;20024;-66
2021/04/30 02:58:55;;;;;;;29.45;14.15;;;9.00;95.80;;;;;;4937519;29;20405;-66
2021/04/30 03:01:20;;;;;;;28.15;13.65;;;9.10;96.10;;;;;;4936186;29;20043;-65
2021/04/30 03:03:46;;;;;;;30.30;14.77;;;9.10;95.80;;;;;;4936408;29;20488;-66
2021/04/30 03:06:11;;;;;;;27.83;13.70;;;9.20;95.80;;;;;;4938262;29;20492;-66
2021/04/30 03:08:37;;;;;;;24.02;13.43;;;9.20;95.80;;;;;;4935761;29;20028;-64
2021/04/30 03:11:03;;;;;;;29.45;14.07;;;9.20;95.70;;;;;;4937765;29;20544;-65
2021/04/30 03:13:28;;;;;;;28.02;13.57;;;9.20;95.70;;;;;;4921027;29;20392;-65
2021/04/30 03:15:54;;;;;;;20.50;13.10;;;9.10;95.70;;;;;;4936835;29;20024;-66
2021/04/30 03:18:19;;;;;;;28.90;13.80;;;9.20;95.70;;;;;;4937434;29;20028;-65
2021/04/30 03:20:45;;;;;;;27.88;13.27;;;9.20;95.80;;;;;;4935920;29;20079;-66
2021/04/30 03:23:10;;;;;;;20.30;13.25;;;9.20;95.70;;;;;;4937126;29;20027;-66
2021/04/30 03:25:36;;;;;;;28.15;13.38;;;9.20;95.70;;;;;;4937361;29;20368;-65
2021/04/30 03:28:02;;;;;;;21.70;13.18;;;9.20;95.70;;;;;;4936865;29;20484;-65
2021/04/30 03:30:27;;;;;;;23.98;13.05;;;9.20;95.70;;;;;;4937366;29;20047;-65
2021/04/30 03:32:53;;;;;;;26.45;13.13;;;9.20;95.70;;;;;;4935782;29;20066;-65
2021/04/30 03:35:20;;;;;;;27.20;14.02;;;9.20;95.70;;;;;;4936808;29;20055;-65
2021/04/30 03:37:47;;;;;;;32.10;13.88;;;9.20;95.70;;;;;;4937468;29;20071;-65
2021/04/30 03:40:13;;;;;;;33.90;14.82;;;9.20;95.70;;;;;;4935838;29;20111;-65
2021/04/30 03:42:38;;;;;;;27.38;13.40;;;9.20;95.70;;;;;;4936388;29;20032;-65
2021/04/30 03:45:05;;;;;;;24.15;13.45;;;9.10;95.60;;;;;;4937260;29;20031;-66
2021/04/30 03:47:30;;;;;;;26.98;14.05;;;9.10;95.70;;;;;;4936469;29;20031;-65
2021/04/30 03:49:56;;;;;;;28.90;15.00;;;9.10;95.70;;;;;;4935194;29;20507;-66
2021/04/30 03:52:22;;;;;;;36.15;16.42;;;9.10;95.70;;;;;;4936995;29;20032;-66
2021/04/30 03:54:47;;;;;;;36.60;15.57;;;9.00;95.70;;;;;;4935573;29;20035;-66
2021/04/30 03:57:13;;;;;;;30.50;14.80;;;9.00;95.70;;;;;;4936262;29;20032;-66
2021/04/30 03:59:38;;;;;;;27.70;15.45;;;9.00;95.70;;;;;;4936717;29;20064;-67
2021/04/30 04:02:04;;;;;;;24.25;15.57;;;9.00;95.80;;;;;;4936781;29;20067;-66
2021/04/30 04:04:29;;;;;;;31.85;16.83;;;9.00;95.80;;;;;;4936267;29;20032;-66
2021/04/30 04:06:55;;;;;;;32.05;16.65;;;9.00;95.80;;;;;;4936533;29;20027;-65
2021/04/30 04:09:20;;;;;;;31.00;16.10;;;9.00;95.80;;;;;;4936604;29;20028;-65
2021/04/30 04:11:46;;;;;;;34.15;15.48;;;9.00;95.80;;;;;;4935897;29;20030;-65
2021/04/30 04:14:12;;;;;;;26.15;17.10;;;9.00;95.80;;;;;;4936860;29;20126;-65
2021/04/30 04:16:37;;;;;;;26.08;16.42;;;9.00;95.80;;;;;;4936377;29;20047;-65
2021/04/30 04:19:03;;;;;;;26.15;16.17;;;9.00;95.80;;;;;;4935810;29;20043;-65
2021/04/30 04:21:28;;;;;;;26.02;14.80;;;9.00;95.90;;;;;;4936611;29;20473;-65
2021/04/30 04:23:54;;;;;;;28.13;16.25;;;8.90;95.90;;;;;;4935051;29;20023;-66
2021/04/30 04:26:19;;;;;;;28.30;16.40;;;9.00;95.90;;;;;;4935955;29;20137;-66
2021/04/30 04:28:46;;;;;;;28.38;16.02;;;8.90;96.00;;;;;;4936009;29;20074;-64
2021/04/30 04:31:12;;;;;;;24.73;15.98;;;8.90;96.00;;;;;;4934363;29;20055;-65
2021/04/30 04:33:37;;;;;;;29.42;16.45;;;8.90;96.00;;;;;;4935939;29;20078;-66
2021/04/30 04:36:03;;;;;;;31.45;17.05;;;8.90;96.00;;;;;;4936273;29;20078;-66
2021/04/30 04:38:29;;;;;;;27.25;16.10;;;8.90;96.00;;;;;;4935628;29;20677;-66
2021/04/30 04:40:54;;;;;;;26.25;16.67;;;8.80;96.30;;;;;;4935922;29;20040;-66
2021/04/30 04:43:20;;;;;;;28.27;17.05;;;8.90;96.10;;;;;;4936374;29;20483;-65
2021/04/30 04:45:46;;;;;;;29.02;17.00;;;8.90;96.10;;;;;;4935212;29;20385;-66
2021/04/30 04:48:11;;;;;;;38.33;19.08;;;8.90;96.10;;;;;;4935988;29;20039;-66
2021/04/30 04:50:37;;;;;;;26.42;17.40;;;8.90;96.10;;;;;;4935645;29;20026;-65
2021/04/30 04:53:02;;;;;;;28.67;19.20;;;9.00;96.10;;;;;;4935412;29;20038;-64
2021/04/30 04:55:28;;;;;;;30.45;18.95;;;9.00;96.00;;;;;;4934265;29;20027;-64
2021/04/30 04:57:53;;;;;;;24.75;17.70;;;9.10;96.00;;;;;;4935807;29;20031;-65
2021/04/30 05:00:20;;;;;;;26.13;17.80;;;9.10;96.00;;;;;;4934502;29;20060;-66
2021/04/30 05:02:45;;;;;;;27.63;17.48;;;9.20;95.90;;;;;;4934308;29;20028;-65
2021/04/30 05:05:12;;;;;;;24.67;16.67;;;9.20;95.80;;;;;;4934972;29;20358;-65
2021/04/30 05:07:38;;;;;;;31.98;18.75;;;9.20;95.70;;;;;;4934292;29;20045;-65
2021/04/30 05:10:04;;;;;;;27.30;17.67;;;9.20;95.80;;;;;;4934395;29;20488;-65
2021/04/30 05:12:31;;;;;;;31.02;18.50;;;9.20;95.80;;;;;;4934372;29;20059;-65
2021/04/30 05:14:56;;;;;;;33.00;19.52;;;9.20;95.80;;;;;;4933760;29;20023;-65
2021/04/30 05:17:22;;;;;;;32.13;18.73;;;9.20;95.80;;;;;;4935005;29;20039;-64
2021/04/30 05:19:48;;;;;;;34.10;17.83;;;9.30;95.80;;;;;;4934867;29;20035;-64
2021/04/30 05:22:14;;;;;;;34.33;19.38;;;9.30;95.80;;;;;;4935295;29;20036;-65
2021/04/30 05:24:42;;;;;;;34.15;19.70;;;9.30;95.80;;;;;;4934139;29;20377;-65
2021/04/30 05:27:11;;;;;;;30.40;18.83;;;9.30;95.70;;;;;;4935359;29;20027;-66
2021/04/30 05:29:43;;;;;;;31.30;19.25;;;9.40;95.70;;;;;;4930166;29;20078;-65
2021/04/30 05:32:10;;;;;;;37.30;19.88;;;9.40;95.60;;;;;;4934122;29;20072;-64
2021/04/30 05:34:36;;;;;;;32.30;19.20;;;9.40;95.60;;;;;;4934460;29;20483;-65
2021/04/30 05:37:02;;;;;;;32.33;18.65;;;9.40;95.60;;;;;;4935726;29;20027;-65
2021/04/30 05:39:28;;;;;;;29.48;18.77;;;9.50;95.50;;;;;;4935265;29;20046;-65
2021/04/30 05:41:54;;;;;;;29.48;18.23;;;9.50;95.40;;;;;;4934459;29;20109;-66
2021/04/30 05:44:19;;;;;;;34.45;20.00;;;9.50;95.50;;;;;;4934168;29;20027;-66
2021/04/30 05:46:45;;;;;;;34.38;19.38;;;9.50;95.70;;;;;;4933808;29;20023;-65
2021/04/30 05:49:11;;;;;;;28.30;18.40;;;9.60;95.50;;;;;;4934726;29;20024;-64
2021/04/30 05:51:36;;;;;;;29.67;19.13;;;9.60;95.40;;;;;;4933770;29;20055;-66
2021/04/30 05:54:02;;;;;;;33.33;19.70;;;9.60;95.40;;;;;;4934710;29;20067;-66
2021/04/30 05:56:27;;;;;;;28.15;19.40;;;9.60;95.30;;;;;;4934575;29;20023;-66
2021/04/30 05:58:53;;;;;;;29.13;18.85;;;9.60;95.30;;;;;;4934997;29;20106;-67
2021/04/30 06:01:19;;;;;;;29.35;19.58;;;9.70;95.30;;;;;;4933483;29;20040;-66
2021/04/30 06:03:44;;;;;;;30.73;20.35;;;9.80;95.30;;;;;;4933076;29;20051;-66
2021/04/30 06:06:10;;;;;;;38.58;20.13;;;9.80;95.30;;;;;;4918018;29;20429;-65
2021/04/30 06:08:35;;;;;;;29.60;18.90;;;9.90;95.20;;;;;;4915891;29;20056;-65
2021/04/30 06:11:01;;;;;;;27.25;19.63;;;10.00;95.10;;;;;;4916101;29;20032;-64
2021/04/30 06:13:26;;;;;;;30.15;21.30;;;10.00;94.90;;;;;;4920754;29;20046;-65
2021/04/30 06:15:52;;;;;;;31.33;21.42;;;10.00;94.70;;;;;;4919387;29;20025;-65
2021/04/30 06:18:18;;;;;;;30.10;19.55;;;10.10;94.70;;;;;;4919446;29;20032;-65
2021/04/30 06:20:44;;;;;;;30.98;19.30;;;10.00;94.60;;;;;;4921978;29;20384;-66
2021/04/30 06:23:09;;;;;;;32.75;19.83;;;10.00;94.50;;;;;;4919655;29;20115;-65
2021/04/30 06:25:35;;;;;;;28.10;18.95;;;10.00;94.60;;;;;;4919580;29;20466;-66
2021/04/30 06:28:01;;;;;;;26.92;20.17;;;10.00;94.60;;;;;;4919421;29;20052;-64
2021/04/30 06:30:26;;;;;;;25.80;18.85;;;10.00;94.60;;;;;;4918205;29;20167;-66
2021/04/30 06:32:52;;;;;;;28.50;20.48;;;10.00;94.70;;;;;;4930659;29;20130;-65
2021/04/30 06:35:17;;;;;;;26.58;19.65;;;10.00;94.70;;;;;;4938429;29;20114;-65
2021/04/30 06:37:43;;;;;;;24.60;19.92;;;9.90;94.60;;;;;;4936522;29;20376;-65
2021/04/30 06:40:09;;;;;;;27.63;19.30;;;10.00;94.70;;;;;;4927380;29;20028;-65
2021/04/30 06:42:35;;;;;;;28.33;20.13;;;10.00;94.70;;;;;;4921752;29;20532;-64
2021/04/30 06:45:01;;;;;;;35.78;20.90;;;10.00;94.70;;;;;;4936283;29;20107;-65
2021/04/30 06:47:26;;;;;;;23.67;18.55;;;10.00;94.50;;;;;;4938197;29;20063;-64
2021/04/30 06:49:53;;;;;;;33.50;20.90;;;10.00;94.50;;;;;;4937785;29;20082;-66
2021/04/30 06:52:18;;;;;;;27.27;20.52;;;10.00;94.50;;;;;;4937453;29;20462;-67
2021/04/30 06:54:44;;;;;;;27.08;20.77;;;10.00;94.50;;;;;;4933419;29;20033;-66
2021/04/30 06:57:10;;;;;;;35.47;21.75;;;10.00;94.60;;;;;;4936836;29;20016;-66
2021/04/30 06:59:35;;;;;;;30.50;20.35;;;10.10;94.70;;;;;;4933172;29;20062;-64
2021/04/30 07:02:03;;;;;;;30.77;19.98;;;10.10;94.50;;;;;;4924256;29;20048;-67
2021/04/30 07:04:28;;;;;;;30.17;19.75;;;10.10;94.50;;;;;;4934095;29;20032;-65
2021/04/30 07:06:54;;;;;;;31.13;21.13;;;10.20;94.60;;;;;;4926507;29;20031;-66
2021/04/30 07:09:19;;;;;;;28.30;21.48;;;10.30;94.50;;;;;;4936859;29;20031;-65
2021/04/30 07:11:45;;;;;;;34.70;22.08;;;10.40;94.50;;;;;;4935940;29;20027;-66
2021/04/30 07:14:11;;;;;;;35.20;24.50;;;10.50;94.20;;;;;;4929951;29;20061;-65
2021/04/30 07:16:36;;;;;;;32.08;21.70;;;10.50;94.00;;;;;;4927099;29;20079;-65
2021/04/30 07:19:02;;;;;;;40.63;24.88;;;10.60;94.00;;;;;;4937376;29;20566;-66
2021/04/30 07:21:27;;;;;;;38.95;22.75;;;10.80;94.00;;;;;;4933852;29;20030;-65
2021/04/30 07:23:53;;;;;;;36.15;22.15;;;10.90;93.70;;;;;;4932538;29;20028;-66
2021/04/30 07:26:19;;;;;;;37.13;22.50;;;11.00;93.30;;;;;;4933293;29;20024;-67
2021/04/30 07:28:44;;;;;;;37.03;22.52;;;11.10;93.20;;;;;;4924207;29;20027;-64
2021/04/30 07:31:10;;;;;;;36.08;22.30;;;11.10;92.50;;;;;;4923816;29;20083;-65
2021/04/30 07:33:37;;;;;;;28.27;22.85;;;11.20;92.40;;;;;;4918381;29;20040;-64
2021/04/30 07:36:04;;;;;;;27.08;21.98;;;11.30;92.40;;;;;;4919409;29;20087;-65
2021/04/30 07:38:30;;;;;;;35.58;23.35;;;11.40;92.40;;;;;;4927692;29;20020;-65
2021/04/30 07:40:55;;;;;;;30.77;21.73;;;11.50;92.20;;;;;;4931181;29;20028;-65
2021/04/30 07:43:21;;;;;;;30.90;23.63;;;11.60;92.10;;;;;;4933164;29;20121;-64
2021/04/30 07:45:47;;;;;;;31.90;22.42;;;11.70;92.20;;;;;;4936721;29;20028;-63
2021/04/30 07:48:12;;;;;;;34.90;23.35;;;11.80;92.40;;;;;;4935619;29;20027;-65
2021/04/30 07:50:39;;;;;;;34.22;23.33;;;12.00;92.40;;;;;;4936609;29;20024;-65
2021/04/30 07:53:04;;;;;;;30.55;23.35;;;12.10;92.00;;;;;;4935425;29;20044;-65
2021/04/30 07:55:31;;;;;;;28.48;23.00;;;12.20;91.80;;;;;;4936215;29;20086;-66
2021/04/30 07:57:57;;;;;;;25.55;22.15;;;12.30;91.10;;;;;;4920829;29;20040;-67
2021/04/30 08:00:23;;;;;;;34.80;23.48;;;12.40;91.10;;;;;;4917149;29;20556;-66
2021/04/30 08:02:48;;;;;;;29.55;21.55;;;12.40;91.20;;;;;;4916890;29;20107;-66
2021/04/30 08:05:15;;;;;;;34.45;22.60;;;12.50;91.00;;;;;;4916589;29;20024;-66
2021/04/30 08:07:43;;;;;;;33.38;23.88;;;12.40;90.80;;;;;;4917307;29;20038;-67
2021/04/30 08:10:12;;;;;;;30.55;20.70;;;12.40;90.70;;;;;;4917011;29;20039;-66
2021/04/30 08:12:39;;;;;;;30.30;21.23;;;12.30;90.80;;;;;;4929707;29;20119;-67
2021/04/30 08:15:05;;;;;;;27.52;20.42;;;12.20;91.00;;;;;;4933036;29;20020;-69
2021/04/30 08:17:31;;;;;;;28.92;20.13;;;12.20;91.20;;;;;;4915201;29;20032;-67
2021/04/30 08:20:00;;;;;;;23.60;18.50;;;12.20;91.40;;;;;;4916776;29;20031;-67
2021/04/30 08:22:29;;;;;;;28.73;18.90;;;12.10;91.20;;;;;;4917324;29;20024;-68
2021/04/30 08:24:55;;;;;;;28.67;20.35;;;12.00;91.20;;;;;;4916536;29;20028;-68
2021/04/30 08:27:22;;;;;;;28.95;19.38;;;12.00;91.20;;;;;;4917046;29;20430;-68
2021/04/30 08:29:48;;;;;;;29.90;19.50;;;11.90;91.30;;;;;;4917844;29;20020;-68
2021/04/30 08:32:14;;;;;;;27.27;20.20;;;11.90;91.50;;;;;;4924797;29;20051;-65
2021/04/30 08:34:40;;;;;;;24.73;19.63;;;11.90;91.50;;;;;;4936016;29;20067;-67
2021/04/30 08:37:07;;;;;;;25.83;18.65;;;11.90;91.50;;;;;;4931412;29;20108;-68
2021/04/30 08:39:32;;;;;;;27.05;19.98;;;12.00;91.50;;;;;;4925852;29;20021;-65
2021/04/30 08:41:58;;;;;;;29.15;20.65;;;12.00;91.50;;;;;;4930571;29;20043;-68
2021/04/30 08:44:25;;;;;;;24.42;20.13;;;11.90;91.00;;;;;;4933613;29;20031;-72
2021/04/30 08:46:50;;;;;;;25.05;21.23;;;11.80;91.00;;;;;;4934298;29;20158;-69
2021/04/30 08:49:16;;;;;;;29.08;21.08;;;11.80;91.20;;;;;;4935388;29;20163;-71
2021/04/30 08:51:42;;;;;;;27.85;21.25;;;11.80;91.30;;;;;;4933711;29;20078;-67
2021/04/30 08:54:09;;;;;;;26.95;22.77;;;11.90;91.50;;;;;;4916799;29;20043;-68
2021/04/30 08:56:43;;;;;;;26.70;20.77;;;12.00;91.50;;;;;;4916615;29;20175;-70
2021/04/30 08:59:09;;;;;;;24.40;20.35;;;12.00;91.30;;;;;;4928982;29;20030;-70
2021/04/30 09:01:35;;;;;;;27.65;21.65;;;12.10;91.10;;;;;;4934320;29;20043;-70
2021/04/30 09:04:03;;;;;;;28.85;21.73;;;12.10;91.00;;;;;;4935693;29;20464;-69
2021/04/30 09:06:37;;;;;;;25.60;20.90;;;12.20;90.80;;;;;;4929113;29;20035;-69
2021/04/30 09:09:15;;;;;;;27.45;22.23;;;12.30;91.00;;;;;;4934952;29;20023;-68
2021/04/30 09:11:51;;;;;;;24.50;21.05;;;12.50;90.90;;;;;;4934536;29;20508;-69
2021/04/30 09:14:30;;;;;;;26.08;21.27;;;12.70;90.70;;;;;;4936050;29;20054;-70
2021/04/30 09:17:17;;;;;;;24.25;21.02;;;12.90;90.80;;;;;;4953933;28;20027;-66
2021/04/30 09:19:47;;;;;;;28.75;20.45;;;13.10;90.20;;;;;;4932210;29;20430;-67
2021/04/30 09:22:14;;;;;;;27.05;21.30;;;13.30;89.50;;;;;;4934553;29;20055;-66
2021/04/30 09:24:41;;;;;;;27.75;22.08;;;13.40;88.20;;;;;;4930271;29;20020;-66
2021/04/30 09:27:06;;;;;;;27.50;21.67;;;13.40;88.20;;;;;;4934380;29;20024;-68
2021/04/30 09:29:34;;;;;;;26.45;21.08;;;13.50;88.60;;;;;;4934734;29;20082;-68
2021/04/30 09:32:01;;;;;;;29.02;20.55;;;13.60;88.60;;;;;;4934961;29;20357;-68
2021/04/30 09:34:35;;;;;;;26.75;20.73;;;13.60;86.70;;;;;;4934788;29;20167;-68
2021/04/30 09:37:09;;;;;;;27.08;21.08;;;13.70;86.10;;;;;;4934920;29;20115;-68
2021/04/30 09:39:54;;;;;;;32.08;22.30;;;13.80;87.10;;;;;;4934970;29;20068;-67
2021/04/30 09:42:22;;;;;;;26.75;21.95;;;13.90;86.50;;;;;;4932750;29;20020;-67
2021/04/30 09:44:50;;;;;;;27.20;21.52;;;14.20;85.70;;;;;;4933645;29;20034;-67
2021/04/30 09:47:20;;;;;;;29.55;21.73;;;14.30;84.70;;;;;;4939005;29;20056;-67
2021/04/30 09:49:57;;;;;;;26.58;20.92;;;14.40;84.90;;;;;;4937813;29;20105;-67
2021/04/30 09:52:24;;;;;;;26.10;20.13;;;14.50;84.60;;;;;;4937395;29;20130;-66
2021/04/30 09:54:51;;;;;;;27.08;20.17;;;14.50;84.00;;;;;;4937891;29;20023;-66
2021/04/30 09:57:24;;;;;;;22.35;19.95;;;14.30;83.80;;;;;;4928145;29;20050;-66
2021/04/30 09:59:53;;;;;;;23.55;20.17;;;14.00;84.00;;;;;;4933114;29;20107;-68
2021/04/30 10:02:20;;;;;;;28.30;20.58;;;13.70;85.10;;;;;;4936832;29;20046;-67
2021/04/30 10:04:49;;;;;;;23.40;20.90;;;13.40;85.40;;;;;;4919030;29;20028;-67
2021/04/30 10:07:36;;;;;;;27.38;22.02;;;13.00;86.20;;;;;;4919405;29;20028;-67
2021/04/30 10:10:10;;;;;;;25.00;21.67;;;12.80;87.50;;;;;;4918818;29;20103;-67
2021/04/30 10:12:59;;;;;;;26.27;22.00;;;12.60;89.00;;;;;;4919399;29;20047;-68
2021/04/30 10:15:25;;;;;;;25.98;21.13;;;12.40;90.00;;;;;;4918213;29;20028;-68
2021/04/30 10:17:56;;;;;;;31.27;23.23;;;12.40;90.30;;;;;;4935978;29;20028;-67
2021/04/30 10:20:21;;;;;;;27.50;21.88;;;12.40;90.50;;;;;;4918242;29;20489;-68
2021/04/30 10:22:47;;;;;;;25.48;21.55;;;12.50;90.70;;;;;;4918220;29;20036;-66
2021/04/30 10:25:19;;;;;;;28.85;22.55;;;12.70;90.50;;;;;;4920759;29;20131;-68
2021/04/30 10:27:48;;;;;;;28.65;23.00;;;12.80;90.50;;;;;;4924936;29;20037;-68
2021/04/30 10:30:32;;;;;;;29.92;22.67;;;13.00;90.00;;;;;;4919235;29;20492;-67
2021/04/30 10:33:22;;;;;;;25.40;21.02;;;13.10;88.60;;;;;;4924557;29;20044;-67
2021/04/30 10:36:05;;;;;;;25.75;22.23;;;13.10;88.60;;;;;;4937676;29;20035;-68
2021/04/30 10:38:39;;;;;;;25.45;21.98;;;13.10;88.60;;;;;;4937272;29;20030;-67
2021/04/30 10:41:10;;;;;;;24.00;21.48;;;13.00;87.80;;;;;;4923120;29;20028;-66
2021/04/30 10:43:36;;;;;;;25.58;22.65;;;12.90;88.00;;;;;;4928449;29;20043;-65
2021/04/30 10:46:14;;;;;;;49.03;25.40;;;12.80;88.60;;;;;;4921807;29;20059;-65
2021/04/30 10:49:03;;;;;;;28.58;22.20;;;12.60;89.40;;;;;;4935156;29;20040;-66
2021/04/30 10:51:30;;;;;;;16.65;14.93;;;12.40;89.90;;;;;;4935070;29;20031;-67
2021/04/30 10:54:23;;;;;;;17.92;15.77;;;12.20;89.60;;;;;;4937202;29;20042;-67
2021/04/30 10:57:03;;;;;;;22.27;19.48;;;12.00;90.10;;;;;;4932097;29;20044;-68
2021/04/30 10:59:43;;;;;;;25.05;21.55;;;12.00;90.30;;;;;;4932240;29;20031;-67
2021/04/30 11:02:25;;;;;;;26.30;22.50;;;12.00;91.00;;;;;;4917776;29;20079;-67
2021/04/30 11:05:06;;;;;;;23.65;21.20;;;12.00;91.20;;;;;;4927174;29;20044;-68
2021/04/30 11:07:52;;;;;;;20.33;18.15;;;12.00;91.70;;;;;;4923816;29;20032;-67
2021/04/30 11:10:26;;;;;;;19.13;17.23;;;12.00;91.40;;;;;;4937491;29;20510;-67
2021/04/30 11:12:53;;;;;;;17.92;16.13;;;12.00;91.20;;;;;;4936013;29;20031;-68
2021/04/30 11:15:19;;;;;;;19.92;17.25;;;12.00;91.00;;;;;;4935902;29;20449;-68
2021/04/30 11:17:55;;;;;;;23.58;20.23;;;12.30;91.40;;;;;;4935875;29;20035;-67
2021/04/30 11:20:24;;;;;;;26.63;22.13;;;12.50;91.30;;;;;;4936640;29;20039;-67
2021/04/30 11:23:22;;;;;;;24.05;21.45;;;12.80;90.70;;;;;;4917981;29;20568;-69
2021/04/30 11:26:07;;;;;;;25.25;21.92;;;13.00;90.10;;;;;;4918066;29;20028;-69
2021/04/30 11:28:33;;;;;;;28.38;24.70;;;13.10;89.50;;;;;;4917762;29;20040;-69
2021/04/30 11:31:18;;;;;;;27.42;23.63;;;13.20;89.60;;;;;;4919603;29;20016;-67
2021/04/30 11:34:05;;;;;;;27.27;24.33;;;13.20;89.30;;;;;;4936230;29;20071;-68
2021/04/30 11:36:31;;;;;;;27.58;24.48;;;13.20;90.10;;;;;;4936627;29;20058;-67
2021/04/30 11:39:14;;;;;;;27.42;24.45;;;13.30;90.10;;;;;;4935360;29;20024;-69
2021/04/30 11:41:41;;;;;;;29.05;23.52;;;13.30;89.70;;;;;;4929054;29;20147;-68
2021/04/30 11:44:07;;;;;;;28.77;23.27;;;13.40;89.20;;;;;;4917603;29;20024;-67
2021/04/30 11:46:33;;;;;;;26.13;23.23;;;13.60;88.60;;;;;;4917543;29;20031;-67
2021/04/30 11:49:01;;;;;;;26.92;23.60;;;13.80;88.80;;;;;;4927276;29;20095;-68
2021/04/30 11:51:26;;;;;;;26.20;23.17;;;14.10;89.00;;;;;;4929296;29;20025;-66
2021/04/30 11:53:58;;;;;;;24.95;22.38;;;14.30;88.00;;;;;;4932491;29;20050;-67
2021/04/30 11:56:30;;;;;;;23.27;20.77;;;14.40;86.30;;;;;;4934263;29;20043;-68
2021/04/30 11:58:56;;;;;;;24.13;21.55;;;14.40;85.00;;;;;;4922914;29;20027;-66
2021/04/30 12:01:24;;;;;;;26.15;23.33;;;14.30;84.30;;;;;;4933117;29;20373;-68
2021/04/30 12:03:53;;;;;;;24.77;22.17;;;14.30;85.50;;;;;;4925381;29;20465;-68
2021/04/30 12:06:20;;;;;;;26.55;22.13;;;14.30;85.70;;;;;;4934995;29;20400;-67
2021/04/30 12:08:48;;;;;;;24.83;22.15;;;14.30;85.40;;;;;;4934962;29;20030;-66
2021/04/30 12:11:23;;;;;;;28.08;23.00;;;14.40;86.80;;;;;;4934635;29;20392;-67
2021/04/30 12:13:50;;;;;;;25.25;22.27;;;14.40;86.70;;;;;;4935846;29;20397;-67
2021/04/30 12:16:16;;;;;;;27.45;22.23;;;14.50;87.00;;;;;;4935497;29;20026;-68
2021/04/30 12:18:42;;;;;;;26.08;23.40;;;14.60;87.40;;;;;;4935767;29;20031;-66
2021/04/30 12:21:08;;;;;;;25.25;22.70;;;14.70;87.40;;;;;;4936125;29;20106;-66
2021/04/30 12:23:34;;;;;;;24.40;22.00;;;14.80;87.60;;;;;;4934293;29;20469;-67
2021/04/30 12:26:00;;;;;;;24.23;21.73;;;14.80;86.80;;;;;;4936100;29;20027;-67
2021/04/30 12:28:33;;;;;;;27.33;22.58;;;14.90;86.60;;;;;;4936175;29;20034;-66
2021/04/30 12:31:05;;;;;;;25.35;22.38;;;14.90;85.60;;;;;;4935552;29;20031;-67
2021/04/30 12:33:30;;;;;;;23.77;20.48;;;15.00;85.30;;;;;;4928821;29;20125;-65
2021/04/30 12:36:17;;;;;;;22.02;19.83;;;15.20;84.20;;;;;;4917109;29;20453;-67